Time;durP1;ratioP1;P1;durP2;ratioP2;P2;SDS_P1;SDS_P2;PMS_P1;PMS_P2;Temp;Humidity;BMP_temperature;BMP_pressure;BME280_temperature;BME280_humidity;BME280_pressure;Samples;Min_cycle;Max_cycle;Signal;HPM_P1;HPM_P2
2023/01/19 01:37:39;;;;;;;4.15;1.55;;;5.20;99.90;;;;;;6155952;23;20092;31
2023/01/19 02:16:12;;;;;;;9.45;3.55;;;5.00;99.90;;;;;;6173434;23;20488;-80
2023/01/19 02:19:33;;;;;;;9.65;4.82;;;4.90;99.90;;;;;;6120669;23;20022;-78
2023/01/19 02:22:44;;;;;;;11.13;6.13;;;4.80;99.90;;;;;;6031222;23;20087;-78
2023/01/19 02:25:36;;;;;;;11.13;5.40;;;4.60;99.90;;;;;;6103362;23;20025;31
2023/01/19 02:36:15;;;;;;;10.07;5.18;;;4.60;99.90;;;;;;6127771;23;20044;-80
2023/01/19 03:00:08;;;;;;;10.95;4.45;;;4.60;99.90;;;;;;6153201;23;20028;31
2023/01/19 03:10:10;;;;;;;11.05;5.45;;;4.50;99.90;;;;;;6169597;23;20017;-78
2023/01/19 03:14:14;;;;;;;11.13;4.83;;;4.40;99.90;;;;;;6131935;23;20049;-80
2023/01/19 03:17:34;;;;;;;7.38;3.35;;;4.40;99.90;;;;;;6112199;23;20028;-80
2023/01/19 03:24:30;;;;;;;7.70;3.88;;;4.30;99.90;;;;;;6192562;23;20015;-78
2023/01/19 03:31:25;;;;;;;5.45;2.67;;;4.30;99.90;;;;;;6231979;22;20020;-78
2023/01/19 03:45:29;;;;;;;6.10;2.92;;;4.20;99.90;;;;;;6224190;22;20012;-78
2023/01/19 03:51:54;;;;;;;4.35;1.95;;;4.10;99.90;;;;;;6172037;23;20015;31
2023/01/19 03:55:33;;;;;;;6.60;2.65;;;4.10;99.90;;;;;;6153000;23;20047;31
2023/01/19 03:59:26;;;;;;;5.18;2.83;;;4.00;99.90;;;;;;6151761;23;20092;-79
2023/01/19 04:19:26;;;;;;;4.22;2.03;;;3.80;99.90;;;;;;6141257;23;20052;-80
2023/01/19 04:21:58;;;;;;;4.80;2.03;;;3.70;99.90;;;;;;6117986;23;20021;-80
2023/01/19 04:24:26;;;;;;;5.65;2.80;;;3.50;99.90;;;;;;6141124;23;20024;-80
2023/01/19 04:27:06;;;;;;;4.10;2.42;;;3.60;99.90;;;;;;6124410;23;20009;-81
2023/01/19 04:29:59;;;;;;;4.05;2.08;;;3.70;99.90;;;;;;6116780;23;20018;-80
2023/01/19 04:32:27;;;;;;;3.95;1.88;;;3.70;99.90;;;;;;6116547;23;20449;-80
2023/01/19 04:35:01;;;;;;;4.70;2.58;;;3.60;99.90;;;;;;6112196;23;20049;-80
2023/01/19 04:37:43;;;;;;;3.90;1.92;;;3.60;99.90;;;;;;6116884;23;20089;-80
2023/01/19 04:40:13;;;;;;;4.25;1.70;;;2.80;99.90;;;;;;6114884;23;20005;-80
2023/01/19 04:43:09;;;;;;;3.55;1.35;;;3.80;99.90;;;;;;6062079;23;20073;-80
2023/01/19 04:45:45;;;;;;;3.95;2.00;;;2.40;99.90;;;;;;6025729;23;20024;-79
2023/01/19 04:48:14;;;;;;;4.57;1.52;;;3.40;99.90;;;;;;6032357;23;20003;-80
2023/01/19 04:50:51;;;;;;;4.10;1.80;;;3.20;99.90;;;;;;5986070;23;20015;-79
2023/01/19 04:53:25;;;;;;;3.20;1.20;;;3.40;99.90;;;;;;5950586;24;20013;-80
2023/01/19 04:56:16;;;;;;;4.50;1.60;;;3.40;99.90;;;;;;5950079;24;20084;-79
2023/01/19 04:58:50;;;;;;;4.60;2.20;;;3.40;99.90;;;;;;5894922;24;20029;-79
2023/01/19 05:01:17;;;;;;;5.90;2.63;;;3.50;99.90;;;;;;5911889;24;20005;-79
2023/01/19 05:03:47;;;;;;;8.57;3.92;;;3.40;99.90;;;;;;5915018;24;20028;-79
2023/01/19 05:06:15;;;;;;;8.55;3.22;;;3.70;99.90;;;;;;5913086;24;20412;-79
2023/01/19 05:08:46;;;;;;;4.78;2.72;;;3.40;99.90;;;;;;5908428;24;20447;-79
2023/01/19 05:11:20;;;;;;;4.68;1.92;;;3.40;99.90;;;;;;5883638;24;20078;-79
2023/01/19 05:13:50;;;;;;;4.70;1.88;;;3.40;99.90;;;;;;5924185;24;20452;-79
2023/01/19 05:16:18;;;;;;;5.20;1.95;;;3.40;99.90;;;;;;5932002;24;20051;-79
2023/01/19 05:18:45;;;;;;;5.10;2.13;;;3.40;99.90;;;;;;5963761;24;20422;-79
2023/01/19 05:21:14;;;;;;;5.40;1.70;;;3.40;99.90;;;;;;5988214;24;20024;-79
2023/01/19 05:23:43;;;;;;;3.42;1.60;;;3.40;99.90;;;;;;5966767;24;20020;-79
2023/01/19 05:26:14;;;;;;;4.28;1.55;;;3.50;99.90;;;;;;5984401;24;20084;-79
2023/01/19 05:28:41;;;;;;;4.43;1.10;;;3.50;99.90;;;;;;5986237;24;20472;-79
2023/01/19 05:31:08;;;;;;;2.97;1.27;;;3.30;99.90;;;;;;5985233;24;20020;-79
2023/01/19 05:33:39;;;;;;;3.22;0.93;;;3.50;99.90;;;;;;5984794;24;20020;-79
2023/01/19 05:36:08;;;;;;;3.05;1.10;;;2.90;99.90;;;;;;6009143;23;20026;-79
2023/01/19 05:38:35;;;;;;;3.58;1.17;;;3.50;99.90;;;;;;6018500;23;20051;-79
2023/01/19 05:41:10;;;;;;;3.33;1.52;;;3.50;99.90;;;;;;6012675;23;20095;-79
2023/01/19 05:43:37;;;;;;;3.22;1.60;;;3.40;99.90;;;;;;6009837;23;20060;-79
2023/01/19 05:46:06;;;;;;;3.65;1.10;;;3.50;99.90;;;;;;6009297;23;20472;-79
2023/01/19 05:48:37;;;;;;;3.03;1.10;;;3.40;99.90;;;;;;6007530;23;20456;-79
2023/01/19 05:51:05;;;;;;;3.30;0.65;;;3.40;99.90;;;;;;6010187;23;20030;-79
2023/01/19 05:53:35;;;;;;;1.52;0.65;;;3.40;99.90;;;;;;5989112;23;20047;-79
2023/01/19 05:56:07;;;;;;;2.63;0.85;;;3.40;99.90;;;;;;6018517;23;20042;-79
2023/01/19 05:58:38;;;;;;;1.88;0.47;;;3.80;99.90;;;;;;6067187;23;20075;-80
2023/01/19 06:01:08;;;;;;;1.63;0.55;;;3.40;99.90;;;;;;6035790;23;20645;-79
2023/01/19 06:03:38;;;;;;;1.88;0.57;;;3.50;99.90;;;;;;6061256;23;20050;-79
2023/01/19 06:06:06;;;;;;;1.50;0.63;;;3.00;99.90;;;;;;6017958;23;20027;-80
2023/01/19 06:08:34;;;;;;;1.20;0.38;;;3.50;99.90;;;;;;6061114;23;20027;-80
2023/01/19 06:11:04;;;;;;;1.17;0.50;;;3.50;99.90;;;;;;6063402;23;20487;-79
2023/01/19 06:13:38;;;;;;;2.20;0.60;;;3.70;99.90;;;;;;6120751;23;20104;-79
2023/01/19 06:16:09;;;;;;;1.93;0.70;;;3.60;99.90;;;;;;6122021;23;20048;-79
2023/01/19 06:18:37;;;;;;;2.85;0.70;;;2.60;99.90;;;;;;6094936;23;20030;-79
2023/01/19 06:21:07;;;;;;;3.05;0.90;;;3.60;99.90;;;;;;6122653;23;20089;-79
2023/01/19 06:23:35;;;;;;;3.88;0.93;;;3.50;99.90;;;;;;6122495;23;20018;-79
2023/01/19 06:26:03;;;;;;;2.38;0.65;;;4.90;99.90;;;;;;6096049;23;20490;-79
2023/01/19 06:28:31;;;;;;;2.38;1.05;;;3.60;99.90;;;;;;6121859;23;20346;-79
2023/01/19 06:30:58;;;;;;;1.55;0.80;;;3.70;99.90;;;;;;6094306;23;20022;-79
2023/01/19 06:33:26;;;;;;;2.45;0.82;;;3.60;99.90;;;;;;6097905;23;20022;-79
2023/01/19 06:35:54;;;;;;;3.25;0.88;;;3.60;99.90;;;;;;6095624;23;20022;-79
2023/01/19 06:38:26;;;;;;;1.98;0.45;;;3.70;99.90;;;;;;6095586;23;20081;-79
2023/01/19 06:41:01;;;;;;;2.60;0.77;;;3.70;99.90;;;;;;6096718;23;20029;-79
2023/01/19 06:43:30;;;;;;;2.28;1.00;;;3.60;99.90;;;;;;6072634;23;20018;-78
2023/01/19 06:45:59;;;;;;;3.13;1.40;;;3.60;99.90;;;;;;6120969;23;20021;-78
2023/01/19 06:48:27;;;;;;;2.72;1.08;;;3.70;99.90;;;;;;6096347;23;20021;-78
2023/01/19 06:50:54;;;;;;;2.08;1.05;;;3.70;99.90;;;;;;6122517;23;20421;-78
2023/01/19 06:53:26;;;;;;;2.35;0.30;;;3.70;99.90;;;;;;6074020;23;20517;-78
2023/01/19 06:56:00;;;;;;;3.00;1.02;;;3.70;99.90;;;;;;6121761;23;20526;-78
2023/01/19 06:58:29;;;;;;;2.03;0.70;;;3.70;99.90;;;;;;6075423;23;20443;-78
2023/01/19 07:01:04;;;;;;;2.65;0.85;;;3.60;99.90;;;;;;6097255;23;20030;-78
2023/01/19 07:03:33;;;;;;;4.57;0.90;;;3.70;99.90;;;;;;6119761;23;20017;-78
2023/01/19 07:06:01;;;;;;;2.33;1.20;;;3.80;99.90;;;;;;6098159;23;20022;-78
2023/01/19 07:08:29;;;;;;;1.92;0.68;;;3.80;99.90;;;;;;6096016;23;20041;-79
2023/01/19 07:11:01;;;;;;;1.30;0.73;;;3.80;99.90;;;;;;6098626;23;20045;-79
2023/01/19 07:13:52;;;;;;;3.53;1.05;;;3.80;99.90;;;;;;6122192;23;20077;-79
2023/01/19 07:16:20;;;;;;;2.13;0.60;;;3.80;99.90;;;;;;6097705;23;20026;-78
2023/01/19 07:18:51;;;;;;;1.92;0.90;;;3.60;99.90;;;;;;6097113;23;20502;-79
2023/01/19 07:21:18;;;;;;;2.20;0.90;;;3.80;99.90;;;;;;6098031;23;20073;-79
2023/01/19 07:23:49;;;;;;;2.72;1.20;;;3.90;99.90;;;;;;6097799;23;20104;-79
2023/01/19 07:26:20;;;;;;;3.13;1.45;;;3.30;99.90;;;;;;6098245;23;20399;-79
2023/01/19 07:28:48;;;;;;;4.15;1.55;;;3.80;99.90;;;;;;6051314;23;20021;-79
2023/01/19 07:31:17;;;;;;;3.47;1.08;;;3.90;99.90;;;;;;6097450;23;20024;-79
2023/01/19 07:33:45;;;;;;;2.33;0.85;;;3.90;99.90;;;;;;6098653;23;20041;-79
2023/01/19 07:36:14;;;;;;;2.25;0.90;;;3.90;99.90;;;;;;6097943;23;20052;-79
2023/01/19 07:38:41;;;;;;;4.20;1.40;;;3.70;99.90;;;;;;6095612;23;20103;-79
2023/01/19 07:41:09;;;;;;;3.13;1.40;;;3.90;99.90;;;;;;6096366;23;20028;-79
2023/01/19 07:43:37;;;;;;;4.40;1.67;;;3.90;99.90;;;;;;6094969;23;20446;-79
2023/01/19 07:46:07;;;;;;;6.78;2.35;;;4.00;99.90;;;;;;6070024;23;20025;-79
2023/01/19 07:48:35;;;;;;;7.13;2.72;;;4.00;99.90;;;;;;6119830;23;20105;-79
2023/01/19 07:51:04;;;;;;;5.82;2.70;;;3.90;99.90;;;;;;6096432;23;20050;-79
2023/01/19 07:53:32;;;;;;;5.57;2.78;;;4.10;99.90;;;;;;6096928;23;20046;-79
2023/01/19 07:55:59;;;;;;;5.45;2.92;;;4.00;99.90;;;;;;6097247;23;20033;-79
2023/01/19 07:58:28;;;;;;;5.18;2.60;;;4.00;99.90;;;;;;6095399;23;20026;-79
2023/01/19 08:00:55;;;;;;;6.88;3.10;;;3.90;99.90;;;;;;6092737;23;20022;-78
2023/01/19 08:03:24;;;;;;;7.88;3.65;;;4.10;99.90;;;;;;6069030;23;20026;-78
2023/01/19 08:05:52;;;;;;;8.48;3.53;;;4.10;99.90;;;;;;6069572;23;20024;-78
2023/01/19 08:08:20;;;;;;;5.18;2.75;;;4.00;99.90;;;;;;6069767;23;20113;-78
2023/01/19 08:10:51;;;;;;;11.75;4.72;;;4.20;99.90;;;;;;6092723;23;20025;-78
2023/01/19 08:13:18;;;;;;;4.45;2.08;;;4.20;99.90;;;;;;6072010;23;20048;-78
2023/01/19 08:15:52;;;;;;;3.60;2.20;;;4.10;99.90;;;;;;6068178;23;20028;-78
2023/01/19 08:18:20;;;;;;;4.70;2.45;;;4.10;99.90;;;;;;6071126;23;20231;-77
2023/01/19 08:20:48;;;;;;;6.85;2.60;;;4.10;99.90;;;;;;6071171;23;20018;-77
2023/01/19 08:23:16;;;;;;;9.52;4.22;;;4.10;99.90;;;;;;6095951;23;20022;-76
2023/01/19 08:25:44;;;;;;;16.55;7.40;;;4.10;99.90;;;;;;6095264;23;20018;-77
2023/01/19 08:28:14;;;;;;;9.70;4.45;;;4.20;99.90;;;;;;6072973;23;20037;-77
2023/01/19 08:30:43;;;;;;;13.43;6.30;;;4.10;99.90;;;;;;6121380;23;20073;-77
2023/01/19 08:33:12;;;;;;;23.98;11.77;;;4.20;99.90;;;;;;6095553;23;20022;-77
2023/01/19 08:35:42;;;;;;;17.65;10.20;;;4.20;99.90;;;;;;6122434;23;20037;-77
2023/01/19 08:38:10;;;;;;;15.75;8.02;;;4.50;99.90;;;;;;6098172;23;20029;-77
2023/01/19 08:40:39;;;;;;;8.73;4.65;;;4.20;99.90;;;;;;6070085;23;20075;-77
2023/01/19 08:43:16;;;;;;;8.20;3.92;;;4.20;99.90;;;;;;6095811;23;20048;-77
2023/01/19 08:45:50;;;;;;;8.73;4.32;;;4.20;99.90;;;;;;6115417;23;20438;-77
2023/01/19 08:48:21;;;;;;;9.90;4.00;;;4.20;99.90;;;;;;6095561;23;20024;-78
2023/01/19 08:50:50;;;;;;;10.40;3.72;;;4.30;99.90;;;;;;6095575;23;20014;-78
2023/01/19 08:53:22;;;;;;;8.32;3.85;;;4.20;99.90;;;;;;6071779;23;20101;-78
2023/01/19 08:55:53;;;;;;;8.85;3.45;;;4.30;99.90;;;;;;6095666;23;20018;-78
2023/01/19 08:58:21;;;;;;;7.82;3.65;;;4.20;99.90;;;;;;6069000;23;20045;-78
2023/01/19 09:00:51;;;;;;;7.97;4.03;;;4.20;99.90;;;;;;6117841;23;20096;-78
2023/01/19 09:03:21;;;;;;;7.80;3.92;;;4.30;99.90;;;;;;6071596;23;20399;-78
2023/01/19 09:05:49;;;;;;;10.18;3.95;;;4.20;99.90;;;;;;6097298;23;20056;-78
2023/01/19 09:08:17;;;;;;;9.93;4.65;;;4.40;99.90;;;;;;6098083;23;20014;-78
2023/01/19 09:10:47;;;;;;;10.57;4.70;;;4.30;99.90;;;;;;6072859;23;20323;-78
2023/01/19 09:13:15;;;;;;;9.93;5.05;;;4.30;99.90;;;;;;6075296;23;20121;-78
2023/01/19 09:15:45;;;;;;;10.50;4.68;;;4.30;99.90;;;;;;6098313;23;20037;-80
2023/01/19 09:18:16;;;;;;;9.40;4.63;;;4.30;99.90;;;;;;6074269;23;20026;-80
2023/01/19 09:20:46;;;;;;;12.27;5.57;;;4.30;99.90;;;;;;6101447;23;20057;-80
2023/01/19 09:23:16;;;;;;;8.55;4.18;;;4.30;99.90;;;;;;6101161;23;20382;-81
2023/01/19 09:25:47;;;;;;;10.77;4.60;;;4.10;99.90;;;;;;6098608;23;20017;-80
2023/01/19 09:28:16;;;;;;;10.13;4.43;;;4.40;99.90;;;;;;6095824;23;20018;-80
2023/01/19 09:30:44;;;;;;;14.38;5.35;;;4.40;99.90;;;;;;6095328;23;20033;-80
2023/01/19 09:33:14;;;;;;;11.13;5.22;;;4.40;99.90;;;;;;6101827;23;20049;-79
2023/01/19 09:35:43;;;;;;;14.30;6.75;;;4.40;99.90;;;;;;6083085;23;20480;-79
2023/01/19 09:38:12;;;;;;;13.50;6.93;;;4.40;99.90;;;;;;6103144;23;20029;-79
2023/01/19 09:40:56;;;;;;;13.20;6.85;;;4.60;99.90;;;;;;6131997;23;20104;-79
2023/01/19 09:43:35;;;;;;;14.05;6.30;;;4.50;99.90;;;;;;6044326;23;20015;-79
2023/01/19 09:46:23;;;;;;;11.52;6.05;;;4.50;99.90;;;;;;6073456;23;20163;-79
2023/01/19 09:49:20;;;;;;;14.55;7.45;;;4.50;99.90;;;;;;6076436;23;20447;-80
2023/01/19 09:51:54;;;;;;;13.27;5.88;;;4.40;99.90;;;;;;6059832;23;20025;-79
2023/01/19 09:55:00;;;;;;;12.25;5.75;;;4.30;99.90;;;;;;6083877;23;20054;-81
2023/01/19 09:57:59;;;;;;;14.50;6.18;;;3.40;99.90;;;;;;6028308;23;20031;-80
2023/01/19 10:00:31;;;;;;;19.02;8.35;;;4.60;99.90;;;;;;5953149;23;20011;-79
2023/01/19 10:03:19;;;;;;;52.60;23.45;;;4.70;99.90;;;;;;5971982;23;20020;-79
2023/01/19 11:08:32;;;;;;;27.38;12.63;;;4.30;99.90;;;;;;6197255;23;20036;31
2023/01/19 11:14:40;;;;;;;18.02;6.95;;;4.20;99.90;;;;;;6115125;23;20035;-80
2023/01/19 11:28:43;;;;;;;13.75;6.05;;;4.10;99.90;;;;;;6199814;22;20039;31
2023/01/19 11:35:36;;;;;;;13.18;5.78;;;4.10;99.90;;;;;;6239280;22;20035;-79
2023/01/19 12:02:43;;;;;;;36.22;19.67;;;4.10;99.90;;;;;;6209706;22;20035;-79
2023/01/19 12:05:51;;;;;;;11.73;6.32;;;3.30;99.90;;;;;;6242042;23;20040;-79
2023/01/19 12:11:36;;;;;;;18.00;10.00;;;4.10;99.90;;;;;;6261265;22;20027;-78
2023/01/19 12:15:38;;;;;;;19.05;10.38;;;3.60;99.90;;;;;;6140876;22;20028;-79
2023/01/19 12:18:24;;;;;;;18.40;9.68;;;4.10;99.90;;;;;;6139081;23;20517;-78
2023/01/19 12:56:11;;;;;;;22.50;11.40;;;4.20;99.90;;;;;;6199399;23;20109;-79
2023/01/19 13:00:10;;;;;;;22.30;10.27;;;4.00;99.90;;;;;;6169055;23;20032;-78
2023/01/19 13:03:40;;;;;;;23.83;11.88;;;4.00;99.90;;;;;;6139174;23;20032;-77
2023/01/19 13:06:07;;;;;;;24.30;10.68;;;4.20;99.90;;;;;;6152227;23;20005;-78
2023/01/19 13:08:59;;;;;;;21.90;10.70;;;4.20;99.90;;;;;;6128985;23;20049;-78
2023/01/19 13:12:06;;;;;;;21.38;10.30;;;4.20;99.90;;;;;;6141749;22;20072;31
2023/01/19 13:14:37;;;;;;;20.55;11.18;;;4.10;99.90;;;;;;6147449;23;20826;-79
2023/01/19 13:17:37;;;;;;;23.48;11.38;;;4.10;99.90;;;;;;6172183;23;20424;31
2023/01/19 13:20:26;;;;;;;22.98;11.68;;;3.90;99.90;;;;;;6106325;23;20018;31
2023/01/19 13:23:21;;;;;;;22.67;12.02;;;3.90;99.90;;;;;;6121281;23;20037;-79
2023/01/19 13:27:02;;;;;;;21.10;10.25;;;3.80;99.90;;;;;;6128479;23;20025;31
2023/01/19 13:37:00;;;;;;;19.10;9.23;;;4.10;99.90;;;;;;6214425;22;20069;-78
2023/01/19 13:39:44;;;;;;;22.17;10.48;;;4.00;99.90;;;;;;6206391;23;20029;-78
2023/01/19 13:42:39;;;;;;;23.48;10.65;;;4.00;99.90;;;;;;6163057;23;20076;-78
2023/01/19 13:46:04;;;;;;;22.65;11.45;;;3.90;99.90;;;;;;6173051;23;20001;-79
2023/01/19 13:49:42;;;;;;;22.30;10.63;;;3.90;99.90;;;;;;6121451;23;20027;-80
2023/01/19 13:55:43;;;;;;;18.88;10.60;;;3.90;99.90;;;;;;6171702;23;20028;-79
2023/01/19 14:02:22;;;;;;;34.03;15.52;;;3.70;99.90;;;;;;6160909;23;20027;-79
2023/01/19 14:09:42;;;;;;;32.00;16.08;;;3.80;99.90;;;;;;6178850;23;20107;31
2023/01/19 14:15:50;;;;;;;;;;;3.80;99.90;;;;;;6151566;23;20148;-78
2023/01/19 14:19:01;;;;;;;25.13;13.02;;;3.80;99.90;;;;;;6162611;23;19926;-78
2023/01/19 14:22:02;;;;;;;26.73;12.18;;;3.80;99.90;;;;;;6209206;23;19997;-78
2023/01/19 14:24:39;;;;;;;23.60;12.10;;;3.70;99.90;;;;;;6176373;23;20017;-78
2023/01/19 14:27:31;;;;;;;28.15;13.95;;;3.70;99.90;;;;;;6178944;23;20008;-78
2023/01/19 14:30:56;;;;;;;26.35;12.75;;;3.70;99.90;;;;;;6125543;23;20029;-78
2023/01/19 14:34:49;;;;;;;29.13;14.65;;;3.70;99.90;;;;;;6053484;23;20023;-78
2023/01/19 14:37:36;;;;;;;26.50;11.80;;;3.70;99.90;;;;;;6001856;23;20023;-78
2023/01/19 14:40:31;;;;;;;37.40;18.00;;;3.50;99.90;;;;;;6000522;23;20476;-78
2023/01/19 14:43:20;;;;;;;27.88;12.63;;;3.70;99.90;;;;;;5965484;24;20024;-78
2023/01/19 14:45:55;;;;;;;23.45;11.52;;;3.60;99.90;;;;;;5959013;24;20036;-78
2023/01/19 14:48:22;;;;;;;25.90;12.32;;;3.70;99.90;;;;;;5956849;24;20020;-78
2023/01/19 14:50:58;;;;;;;23.13;11.25;;;3.80;99.90;;;;;;5960438;24;20028;-78
2023/01/19 14:53:37;;;;;;;26.13;12.80;;;4.00;99.90;;;;;;5957958;24;20031;-78
2023/01/19 14:56:11;;;;;;;22.05;10.40;;;3.70;99.90;;;;;;5938665;24;20029;-78
2023/01/19 14:59:15;;;;;;;21.45;10.40;;;3.80;99.90;;;;;;5959900;24;20132;-78
2023/01/19 15:01:54;;;;;;;20.00;9.40;;;3.80;99.90;;;;;;5938030;24;20029;-78
2023/01/19 15:04:27;;;;;;;27.20;11.88;;;3.70;99.90;;;;;;5984081;23;20457;-78
2023/01/19 15:07:04;;;;;;;23.88;10.65;;;3.90;99.90;;;;;;6138133;23;20450;-78
2023/01/19 15:09:39;;;;;;;23.30;10.52;;;3.70;99.90;;;;;;6133463;23;20026;-78
2023/01/19 15:12:31;;;;;;;27.80;13.38;;;3.80;99.90;;;;;;6111157;23;20110;-79
2023/01/19 15:15:31;;;;;;;26.45;13.35;;;4.00;99.90;;;;;;6036100;23;20020;-78
2023/01/19 15:18:03;;;;;;;29.20;14.23;;;3.70;99.90;;;;;;5993728;23;20023;-78
2023/01/19 15:20:31;;;;;;;25.88;12.55;;;3.30;99.90;;;;;;6013652;23;20023;-78
2023/01/19 15:22:59;;;;;;;30.27;13.43;;;3.60;99.90;;;;;;6016939;23;20023;-78
2023/01/19 15:25:26;;;;;;;26.70;12.07;;;3.50;99.90;;;;;;6033621;23;20023;-78
2023/01/19 15:27:58;;;;;;;28.58;13.43;;;3.80;99.90;;;;;;6011635;23;20023;-78
2023/01/19 15:30:29;;;;;;;30.88;14.60;;;3.90;99.90;;;;;;6011471;23;20023;-77
2023/01/19 15:32:57;;;;;;;33.88;14.57;;;3.60;99.90;;;;;;6010795;23;20027;-77
2023/01/19 15:35:25;;;;;;;28.98;13.48;;;3.60;99.90;;;;;;6008786;23;20043;-79
2023/01/19 15:37:53;;;;;;;24.45;10.52;;;3.60;99.90;;;;;;6013233;23;20024;-79
2023/01/19 15:40:22;;;;;;;22.55;10.10;;;3.60;99.90;;;;;;6017824;23;20015;-79
2023/01/19 15:42:51;;;;;;;24.52;11.48;;;3.60;99.90;;;;;;6024956;23;20019;-79
2023/01/19 15:45:40;;;;;;;24.02;10.95;;;3.40;99.90;;;;;;6031525;23;20352;-79
2023/01/19 15:48:10;;;;;;;27.48;12.05;;;3.40;99.90;;;;;;6118648;23;20462;-79
2023/01/19 15:50:44;;;;;;;31.48;13.13;;;3.50;99.90;;;;;;6111510;23;20034;-79
2023/01/19 15:53:18;;;;;;;88.28;29.95;;;3.40;99.90;;;;;;6090705;23;20006;-79
2023/01/19 15:55:55;;;;;;;33.67;14.50;;;3.50;99.90;;;;;;6113404;23;20021;-78
2023/01/19 15:58:23;;;;;;;33.67;15.25;;;3.50;99.90;;;;;;6085574;23;20022;-79
2023/01/19 16:00:56;;;;;;;34.85;14.85;;;3.40;99.90;;;;;;6106923;23;20032;-79
2023/01/19 16:03:37;;;;;;;34.47;15.68;;;3.60;99.90;;;;;;6106703;23;20021;-79
2023/01/19 16:06:09;;;;;;;33.83;16.27;;;3.50;99.90;;;;;;6089007;23;20026;-79
2023/01/19 16:08:39;;;;;;;35.35;17.33;;;3.30;99.90;;;;;;6105553;23;20022;-79
2023/01/19 16:11:09;;;;;;;38.30;19.40;;;3.30;99.90;;;;;;6108394;23;20018;-79
2023/01/19 16:13:38;;;;;;;89.78;30.50;;;2.40;99.90;;;;;;6105876;23;20037;-79
2023/01/19 16:16:26;;;;;;;31.50;14.60;;;3.50;99.90;;;;;;6129871;23;20026;-79
2023/01/19 16:18:56;;;;;;;32.47;14.70;;;3.50;99.90;;;;;;6101853;23;20065;-79
2023/01/19 16:21:24;;;;;;;34.03;14.00;;;3.40;99.90;;;;;;6107275;23;20082;-79
2023/01/19 16:23:51;;;;;;;31.42;15.20;;;3.50;99.90;;;;;;6099274;23;20029;-79
2023/01/19 16:26:25;;;;;;;32.08;12.65;;;3.50;99.90;;;;;;6096818;23;20028;-79
2023/01/19 16:28:56;;;;;;;29.50;13.32;;;3.50;99.90;;;;;;6124776;23;20039;-79
2023/01/19 16:31:24;;;;;;;33.88;16.02;;;3.50;99.90;;;;;;6093411;23;20434;-79
2023/01/19 16:33:51;;;;;;;34.20;15.90;;;3.40;99.90;;;;;;6084974;23;20109;-79
2023/01/19 16:36:30;;;;;;;34.78;16.45;;;3.20;99.90;;;;;;6095044;23;20109;-79
2023/01/19 16:39:01;;;;;;;34.45;16.83;;;3.30;99.90;;;;;;6100744;23;20093;-79
2023/01/19 16:41:34;;;;;;;82.38;33.33;;;3.30;99.90;;;;;;6075258;23;20473;-79
2023/01/19 16:44:03;;;;;;;49.70;20.83;;;3.40;99.90;;;;;;6095127;23;20563;-77
2023/01/19 16:46:34;;;;;;;43.83;21.02;;;3.40;99.90;;;;;;6098339;23;20021;-77
2023/01/19 16:49:04;;;;;;;43.92;21.67;;;3.40;99.90;;;;;;6074990;23;20108;-78
2023/01/19 16:51:32;;;;;;;38.35;18.25;;;3.20;99.90;;;;;;6125845;23;20018;-78
2023/01/19 16:54:00;;;;;;;39.25;18.08;;;3.40;99.90;;;;;;6098866;23;20032;-77
2023/01/19 16:56:28;;;;;;;35.78;16.23;;;3.10;99.90;;;;;;6095289;23;20026;-77
2023/01/19 16:58:58;;;;;;;35.55;15.70;;;3.30;99.90;;;;;;6098478;23;20029;-77
2023/01/19 17:01:28;;;;;;;38.70;16.50;;;3.30;99.90;;;;;;6097982;23;20025;-77
2023/01/19 17:03:56;;;;;;;34.85;16.08;;;3.30;99.90;;;;;;6121739;23;20018;-79
2023/01/19 17:06:24;;;;;;;45.95;22.42;;;3.30;99.90;;;;;;6121244;23;20022;-78
2023/01/19 17:08:52;;;;;;;43.25;18.27;;;3.30;99.90;;;;;;6070268;23;20072;-78
2023/01/19 17:11:23;;;;;;;35.25;16.40;;;3.40;99.90;;;;;;6123952;23;20014;-78
2023/01/19 17:14:01;;;;;;;33.78;17.25;;;3.20;99.90;;;;;;6122455;23;20021;-78
2023/01/19 17:16:32;;;;;;;35.97;15.05;;;3.00;99.90;;;;;;6116294;23;20029;-78
2023/01/19 17:19:02;;;;;;;36.47;16.08;;;3.10;99.90;;;;;;6091820;23;20081;-78
2023/01/19 17:21:36;;;;;;;38.08;15.68;;;3.20;99.90;;;;;;6121140;23;20022;-78
2023/01/19 17:24:26;;;;;;;37.88;16.92;;;3.10;99.90;;;;;;6056368;23;20023;-78
2023/01/19 17:26:56;;;;;;;36.10;17.15;;;3.20;99.90;;;;;;6015733;23;20123;-78
2023/01/19 17:29:24;;;;;;;40.05;17.67;;;2.00;99.90;;;;;;6007757;23;20083;-78
2023/01/19 17:31:53;;;;;;;38.35;15.85;;;2.30;99.90;;;;;;6005139;23;20449;-78
2023/01/19 17:34:21;;;;;;;41.38;18.65;;;3.10;99.90;;;;;;5979498;23;20028;-78
2023/01/19 17:36:50;;;;;;;37.65;17.52;;;3.00;99.90;;;;;;5982988;23;20031;-78
2023/01/19 17:39:20;;;;;;;42.85;19.70;;;3.10;99.90;;;;;;5959343;23;20035;-78
2023/01/19 17:41:49;;;;;;;36.83;15.77;;;3.10;99.90;;;;;;5977136;23;20027;-78
2023/01/19 17:44:18;;;;;;;45.25;21.95;;;3.20;99.90;;;;;;6008596;23;20029;-78
2023/01/19 17:46:47;;;;;;;38.65;17.70;;;3.20;99.90;;;;;;5974436;23;20027;-78
2023/01/19 17:49:15;;;;;;;39.65;18.50;;;3.10;99.90;;;;;;5973503;23;20071;-78
2023/01/19 17:51:43;;;;;;;33.33;15.25;;;3.20;99.90;;;;;;5974637;23;20034;-78
2023/01/19 17:54:15;;;;;;;39.85;17.08;;;2.40;99.90;;;;;;5999898;23;20524;-78
2023/01/19 17:56:44;;;;;;;39.08;18.02;;;3.10;99.90;;;;;;5976459;23;20055;-78
2023/01/19 17:59:13;;;;;;;38.58;15.52;;;3.10;99.90;;;;;;5975272;23;20066;-78
2023/01/19 18:01:43;;;;;;;40.20;17.38;;;3.00;99.90;;;;;;6014151;23;20027;-78
2023/01/19 18:04:12;;;;;;;35.45;15.45;;;3.20;99.90;;;;;;6033226;23;20019;-78
2023/01/19 18:06:41;;;;;;;40.85;16.83;;;3.20;99.90;;;;;;6044969;23;20415;-78
2023/01/19 18:09:11;;;;;;;33.90;15.35;;;3.20;99.90;;;;;;6062017;23;20370;-78
2023/01/19 18:11:41;;;;;;;34.65;15.35;;;3.10;99.90;;;;;;6089614;23;20514;-78
2023/01/19 18:14:11;;;;;;;38.35;18.52;;;3.00;99.90;;;;;;6068047;23;20026;-78
2023/01/19 18:16:45;;;;;;;51.95;23.67;;;3.20;99.90;;;;;;6066116;23;20029;-78
2023/01/19 18:19:14;;;;;;;56.22;25.88;;;3.20;99.90;;;;;;6063092;23;20026;-78
2023/01/19 18:21:42;;;;;;;76.53;30.58;;;2.20;99.90;;;;;;6042377;23;20034;-78
2023/01/19 18:24:11;;;;;;;47.47;18.15;;;3.20;99.90;;;;;;6065533;23;20018;-78
2023/01/19 18:26:41;;;;;;;49.90;19.70;;;3.20;99.90;;;;;;6068038;23;20532;-79
2023/01/19 18:29:10;;;;;;;122.10;46.72;;;2.20;99.90;;;;;;6083497;23;20026;-79
2023/01/19 18:31:41;;;;;;;33.05;14.75;;;3.20;99.90;;;;;;6064811;23;20404;-79
2023/01/19 18:34:30;;;;;;;57.00;22.67;;;3.10;99.90;;;;;;6062103;23;20054;-79
2023/01/19 18:37:02;;;;;;;52.75;23.35;;;3.20;99.90;;;;;;6063682;23;20034;-79
2023/01/19 18:39:31;;;;;;;43.45;18.95;;;3.30;99.90;;;;;;6059252;23;20059;-79
2023/01/19 18:41:59;;;;;;;63.42;27.23;;;3.20;99.90;;;;;;6035920;23;20027;-78
2023/01/19 18:44:29;;;;;;;70.88;30.38;;;3.20;99.90;;;;;;6061043;23;20165;-78
2023/01/19 18:46:57;;;;;;;44.47;20.45;;;3.20;99.90;;;;;;6089986;23;20687;-79
2023/01/19 18:49:25;;;;;;;42.00;20.33;;;3.20;99.90;;;;;;6043972;23;20078;-79
2023/01/19 18:51:55;;;;;;;39.75;20.80;;;3.20;99.90;;;;;;6066349;23;20026;-78
2023/01/19 18:54:24;;;;;;;37.35;16.42;;;3.00;99.90;;;;;;6065281;23;20033;-78
2023/01/19 18:57:12;;;;;;;31.98;13.35;;;3.20;99.90;;;;;;6116701;23;20037;-79
2023/01/19 18:59:42;;;;;;;30.85;13.20;;;3.20;99.90;;;;;;6093163;23;20113;-78
2023/01/19 19:02:32;;;;;;;34.00;14.75;;;3.30;99.90;;;;;;6071675;23;20058;-77
2023/01/19 19:05:10;;;;;;;33.15;15.65;;;3.10;99.90;;;;;;6056133;23;20030;-77
2023/01/19 19:07:41;;;;;;;28.50;13.02;;;3.10;99.90;;;;;;6059847;23;20110;-78
2023/01/19 19:10:11;;;;;;;36.00;15.70;;;3.00;99.90;;;;;;6065663;23;20022;-78
2023/01/19 19:12:41;;;;;;;50.75;21.00;;;3.10;99.90;;;;;;6061245;23;20022;-78
2023/01/19 19:15:09;;;;;;;33.70;14.10;;;3.10;99.90;;;;;;6084676;23;20030;-78
2023/01/19 19:17:40;;;;;;;30.25;13.13;;;3.20;99.90;;;;;;6092760;23;20022;-78
2023/01/19 19:20:09;;;;;;;27.15;12.10;;;3.10;99.90;;;;;;6067620;23;20109;-79
2023/01/19 19:22:40;;;;;;;32.65;14.23;;;3.00;99.90;;;;;;6090564;23;20033;-78
2023/01/19 19:25:09;;;;;;;25.35;13.10;;;3.10;99.90;;;;;;6091282;23;20054;-78
2023/01/19 19:27:39;;;;;;;52.15;20.65;;;3.10;99.90;;;;;;6095727;23;20014;-78
2023/01/19 19:30:12;;;;;;;33.60;14.38;;;3.10;99.90;;;;;;6066953;23;20018;-78
2023/01/19 19:32:41;;;;;;;35.65;14.35;;;3.00;99.90;;;;;;6090143;23;20015;-78
2023/01/19 19:35:17;;;;;;;60.08;26.63;;;2.30;99.90;;;;;;6067843;23;20117;-78
2023/01/19 19:37:48;;;;;;;29.27;11.82;;;3.10;99.90;;;;;;6116087;23;20027;-78
2023/01/19 19:40:17;;;;;;;26.88;12.52;;;3.20;99.90;;;;;;6067012;23;20060;-78
2023/01/19 19:42:49;;;;;;;23.58;10.43;;;3.40;99.90;;;;;;6095636;23;20037;-80
2023/01/19 19:45:18;;;;;;;27.13;11.00;;;2.90;99.90;;;;;;6097798;23;20018;-79
2023/01/19 19:47:47;;;;;;;25.02;11.05;;;3.00;99.90;;;;;;6074683;23;20486;-78
2023/01/19 19:50:17;;;;;;;24.58;10.60;;;3.00;99.90;;;;;;6094884;23;20442;-78